Time;durP1;ratioP1;P1;durP2;ratioP2;P2;SDS_P1;SDS_P2;PMS_P1;PMS_P2;Temp;Humidity;BMP_temperature;BMP_pressure;BME280_temperature;BME280_humidity;BME280_pressure;Samples;Min_cycle;Max_cycle;Signal;HPM_P1;HPM_P2
2022/11/13 00:00:03;;;;;;;14.07;7.55;;;;;;;9.30;100.00;102600.78;6097146;23;20022;-53
2022/11/13 00:02:49;;;;;;;13.70;7.65;;;;;;;9.31;100.00;102597.84;6096302;23;20022;-53
2022/11/13 00:05:36;;;;;;;12.98;7.60;;;;;;;9.33;100.00;102601.19;6094946;23;20022;-56
2022/11/13 00:08:22;;;;;;;13.95;7.50;;;;;;;9.32;100.00;102594.06;6095785;23;20046;-52
2022/11/13 00:11:19;;;;;;;15.80;8.07;;;;;;;9.33;100.00;102590.31;6095842;23;20042;-51
2022/11/13 00:14:05;;;;;;;14.30;7.90;;;;;;;9.33;100.00;102594.91;6095375;23;20023;-54
2022/11/13 00:16:51;;;;;;;14.60;7.88;;;;;;;9.32;100.00;102595.97;6094337;23;20093;-55
2022/11/13 00:19:37;;;;;;;14.55;7.55;;;;;;;9.33;100.00;102584.88;6096087;23;20090;-56
2022/11/13 00:22:23;;;;;;;15.57;8.18;;;;;;;9.34;100.00;102580.25;6096979;23;20014;-53
2022/11/13 00:25:09;;;;;;;14.13;7.97;;;;;;;9.33;100.00;102571.28;6096570;23;20025;-56
2022/11/13 00:27:55;;;;;;;;;;;;;;;9.34;100.00;102564.78;6097249;23;20018;-52
2022/11/13 00:30:41;;;;;;;13.90;7.78;;;;;;;9.33;100.00;102573.13;6095918;23;19996;-52
2022/11/13 00:33:28;;;;;;;14.02;7.90;;;;;;;9.30;100.00;102563.53;6095787;23;20029;-51
2022/11/13 00:36:34;;;;;;;14.77;8.38;;;;;;;9.25;100.00;102568.78;6095798;23;20348;-51
2022/11/13 00:39:20;;;;;;;;;;;;;;;9.21;100.00;102559.38;6096519;23;20074;-50
2022/11/13 00:42:06;;;;;;;11.95;7.50;;;;;;;9.16;100.00;102553.75;6095386;23;19960;-51
2022/11/13 00:44:52;;;;;;;14.90;7.72;;;;;;;9.17;100.00;102550.00;6095057;23;20022;-51
2022/11/13 00:47:38;;;;;;;13.95;8.20;;;;;;;9.17;100.00;102558.16;6096044;23;20054;-50
2022/11/13 00:50:24;;;;;;;15.40;8.55;;;;;;;9.14;100.00;102558.59;6096095;23;20022;-51
2022/11/13 00:53:11;;;;;;;;;;;;;;;9.14;100.00;102553.16;6096841;23;20097;-52
2022/11/13 00:56:03;;;;;;;13.95;8.05;;;;;;;9.10;100.00;102541.88;6097412;23;19917;-52
2022/11/13 00:58:49;;;;;;;14.73;7.93;;;;;;;9.07;100.00;102547.75;6097783;23;20029;-53
2022/11/13 01:01:35;;;;;;;13.15;7.80;;;;;;;9.07;100.00;102544.19;6096788;23;20026;-54
2022/11/13 01:04:21;;;;;;;;;;;;;;;9.06;100.00;102542.50;6096756;23;20392;-55
2022/11/13 01:07:07;;;;;;;14.98;8.10;;;;;;;9.06;100.00;102545.22;6075125;23;19943;-52
2022/11/13 01:09:53;;;;;;;;;;;;;;;9.10;100.00;102552.75;6097203;23;20046;-50
2022/11/13 01:12:39;;;;;;;14.80;7.72;;;;;;;9.13;100.00;102541.44;6096667;23;19923;-51
2022/11/13 01:15:25;;;;;;;13.18;7.57;;;;;;;9.12;100.00;102538.94;6096903;23;20388;-51
2022/11/13 01:18:11;;;;;;;;;;;;;;;9.11;100.00;102538.09;6098052;23;20101;-52
2022/11/13 01:21:13;;;;;;;14.90;6.85;;;;;;;9.12;99.95;102533.50;6096156;23;19921;-57
2022/11/13 01:23:59;;;;;;;13.25;7.20;;;;;;;9.13;99.71;102541.44;6098046;23;20022;-52
2022/11/13 01:26:45;;;;;;;13.18;7.43;;;;;;;9.12;98.89;102538.94;6096385;23;20023;-53
2022/11/13 01:29:31;;;;;;;12.43;7.45;;;;;;;9.12;98.76;102533.50;6096126;23;20026;-56
2022/11/13 01:32:18;;;;;;;12.18;7.22;;;;;;;9.09;98.58;102533.91;6096808;23;20029;-53
2022/11/13 01:35:04;;;;;;;12.68;7.45;;;;;;;9.11;98.67;102516.31;6096945;23;20019;-55
2022/11/13 01:37:50;;;;;;;13.68;7.57;;;;;;;9.15;98.15;102524.91;6096212;23;20019;-58
2022/11/13 01:40:43;;;;;;;11.43;7.05;;;;;;;9.17;98.07;102522.81;6097114;23;20454;-55
2022/11/13 01:43:35;;;;;;;13.52;7.20;;;;;;;9.16;97.67;102518.41;6097436;23;20030;-56
2022/11/13 01:46:26;;;;;;;11.85;7.03;;;;;;;9.16;98.16;102515.69;6095207;23;20014;-56
2022/11/13 01:49:31;;;;;;;13.23;7.20;;;;;;;9.15;97.68;102511.31;6097643;23;20014;-56
2022/11/13 01:52:30;;;;;;;13.38;7.65;;;;;;;9.11;96.81;102510.88;6095799;23;20049;-58
2022/11/13 01:55:18;;;;;;;14.70;7.45;;;;;;;9.06;96.22;102512.59;6095765;23;20333;-56
2022/11/13 01:58:07;;;;;;;10.60;6.13;;;;;;;9.00;96.07;102505.31;6095574;23;20023;-55
2022/11/13 02:00:53;;;;;;;10.70;6.70;;;;;;;8.98;96.83;102499.25;6076296;23;20018;-56
2022/11/13 02:03:39;;;;;;;11.50;7.00;;;;;;;8.99;96.55;102503.63;6097492;23;20022;-56
2022/11/13 02:06:27;;;;;;;11.25;6.75;;;;;;;8.99;96.50;102503.63;6094263;23;20025;-55
2022/11/13 02:09:15;;;;;;;11.88;6.65;;;;;;;8.98;95.36;102491.13;6096791;23;20022;-56
2022/11/13 02:12:01;;;;;;;12.93;6.97;;;;;;;8.96;96.14;102500.31;6095349;23;20073;-56
2022/11/13 02:14:52;;;;;;;12.52;6.70;;;;;;;8.97;95.46;102487.53;6097457;23;20050;-53
2022/11/13 02:17:46;;;;;;;12.38;6.75;;;;;;;8.96;94.95;102489.41;6095602;23;20023;-53
2022/11/13 02:20:46;;;;;;;14.35;7.18;;;;;;;8.96;94.07;102486.72;6095409;23;20018;-55
2022/11/13 02:23:48;;;;;;;12.30;6.78;;;;;;;8.96;94.08;102481.25;6095759;23;20093;-56
2022/11/13 02:26:37;;;;;;;10.80;6.45;;;;;;;8.95;94.08;102476.91;6095483;23;20019;-57
2022/11/13 02:29:22;;;;;;;11.25;6.20;;;;;;;8.99;94.59;102476.44;6097217;23;20026;-56
2022/11/13 02:32:08;;;;;;;13.55;7.05;;;;;;;9.02;94.30;102482.31;6095238;23;20022;-57
2022/11/13 02:34:54;;;;;;;11.70;7.10;;;;;;;9.06;94.36;102480.81;6096548;23;20019;-56
2022/11/13 02:37:40;;;;;;;11.10;6.72;;;;;;;9.05;93.85;102472.88;6096233;23;20018;-55
2022/11/13 02:40:27;;;;;;;11.13;6.38;;;;;;;9.02;93.16;102478.72;6093646;23;20022;-57
2022/11/13 02:43:13;;;;;;;11.43;6.25;;;;;;;9.01;93.66;102466.19;6094796;23;20029;-56
2022/11/13 02:45:59;;;;;;;10.80;6.70;;;;;;;9.02;93.50;102457.84;6096338;23;20022;-57
2022/11/13 02:48:45;;;;;;;10.85;6.72;;;;;;;9.01;92.46;102467.03;6095381;23;20093;-57
2022/11/13 02:51:31;;;;;;;;;;;;;;;9.00;93.06;102461.81;6096068;23;20452;-55
2022/11/13 02:54:18;;;;;;;10.85;6.65;;;;;;;8.94;91.58;102461.63;6096997;23;19921;-56
2022/11/13 02:57:03;;;;;;;11.65;6.55;;;;;;;8.95;92.04;102466.03;6094879;23;20485;-55
2022/11/13 02:59:50;;;;;;;;;;;;;;;8.96;91.77;102464.97;6096625;23;20015;-53
2022/11/13 03:02:36;;;;;;;11.43;6.07;;;;;;;8.96;91.60;102464.97;6095597;23;20004;-55
2022/11/13 03:05:22;;;;;;;11.90;6.32;;;;;;;8.99;91.29;102457.41;6096776;23;20022;-55
2022/11/13 03:08:08;;;;;;;11.80;6.07;;;;;;;9.02;91.55;102467.84;6096074;23;20023;-56
2022/11/13 03:10:55;;;;;;;11.15;6.60;;;;;;;9.04;91.15;102476.63;6092200;23;20018;-54
2022/11/13 03:13:41;;;;;;;12.45;6.07;;;;;;;9.06;91.09;102480.81;6095498;23;20023;-56
2022/11/13 03:16:27;;;;;;;;;;;;;;;9.13;91.52;102475.34;6095675;23;20448;-51
2022/11/13 03:19:14;;;;;;;11.10;6.07;;;;;;;9.14;90.63;102461.53;6096370;23;20012;-55
2022/11/13 03:22:00;;;;;;;10.13;6.32;;;;;;;9.15;91.02;102457.75;6096635;23;20024;-54
2022/11/13 03:24:46;;;;;;;;;;;;;;;9.19;91.12;102458.16;6097696;23;20018;-52
2022/11/13 03:27:32;;;;;;;10.45;6.03;;;;;;;9.15;89.56;102448.75;6098034;23;20306;-57
2022/11/13 03:30:18;;;;;;;;;;;;;;;9.11;90.13;102451.06;6099476;23;20444;-54
2022/11/13 03:33:05;;;;;;;12.20;6.60;;;;;;;9.03;89.62;102439.63;6097836;23;20330;-55
2022/11/13 03:35:50;;;;;;;10.93;6.38;;;;;;;8.99;90.30;102435.69;6095154;23;20014;-55
2022/11/13 03:38:36;;;;;;;12.00;6.13;;;;;;;8.96;89.79;102437.78;6096947;23;20097;-54
2022/11/13 03:41:22;;;;;;;;;;;;;;;8.95;89.96;102432.56;6096452;23;20022;-54
2022/11/13 03:44:08;;;;;;;10.45;6.28;;;;;;;8.91;90.08;102432.16;6096355;23;20011;-57
2022/11/13 03:46:54;;;;;;;;;;;;;;;8.93;91.24;102440.94;6097155;23;20018;-51
2022/11/13 03:49:40;;;;;;;11.00;5.72;;;;;;;8.96;90.34;102429.63;6096571;23;19937;-56
2022/11/13 03:52:26;;;;;;;11.57;6.53;;;;;;;8.99;90.13;102424.78;6095862;23;20102;-56
2022/11/13 03:55:13;;;;;;;12.40;6.25;;;;;;;8.99;89.91;102413.94;6096075;23;20165;-56
2022/11/13 03:57:59;;;;;;;12.20;6.63;;;;;;;8.97;89.74;102416.84;6094958;23;20022;-55
2022/11/13 04:00:47;;;;;;;12.35;6.70;;;;;;;8.98;89.86;102423.97;6096804;23;20029;-54
2022/11/13 04:03:33;;;;;;;12.23;6.38;;;;;;;8.99;89.81;102422.09;6094540;23;20026;-53
2022/11/13 04:06:20;;;;;;;;;;;;;;;9.01;89.62;102417.25;6095823;23;20438;-51
2022/11/13 04:09:07;;;;;;;9.88;6.45;;;;;;;9.00;88.81;102405.56;6095242;23;19918;-57
2022/11/13 04:11:53;;;;;;;11.25;6.55;;;;;;;8.99;88.82;102406.59;6096084;23;20325;-56
2022/11/13 04:14:39;;;;;;;15.07;6.95;;;;;;;8.94;88.55;102407.25;6094317;23;20034;-55
2022/11/13 04:17:25;;;;;;;12.00;6.60;;;;;;;8.91;88.64;102413.13;6096240;23;20022;-54
2022/11/13 04:20:11;;;;;;;11.48;7.55;;;;;;;8.88;88.59;102402.69;6096144;23;20396;-52
2022/11/13 04:22:57;;;;;;;12.98;7.22;;;;;;;8.84;88.84;102400.63;6095954;23;20022;-54
2022/11/13 04:25:43;;;;;;;;;;;;;;;8.81;89.16;102395.63;6096573;23;20042;-56
2022/11/13 04:28:30;;;;;;;12.48;6.90;;;;;;;8.85;89.41;102395.00;6097092;23;19917;-57
2022/11/13 04:31:16;;;;;;;15.50;7.75;;;;;;;8.86;88.87;102390.38;6098070;23;20023;-56
2022/11/13 04:34:02;;;;;;;14.13;7.13;;;;;;;8.84;88.66;102387.88;6098178;23;20030;-57
2022/11/13 04:36:48;;;;;;;13.55;6.45;;;;;;;8.87;89.46;102375.72;6076523;23;20026;-56
2022/11/13 04:39:35;;;;;;;11.23;6.75;;;;;;;8.88;88.72;102380.97;6098057;23;20023;-57
2022/11/13 04:45:26;;;;;;;11.40;7.15;;;;;;;8.84;88.99;102373.44;6097733;23;20022;-57
2022/11/13 04:48:12;;;;;;;12.05;6.97;;;;;;;8.81;88.99;102374.72;6097928;23;20455;-56
2022/11/13 04:50:58;;;;;;;11.90;7.05;;;;;;;8.80;89.75;102367.59;6097871;23;20018;-57
2022/11/13 04:53:44;;;;;;;13.13;7.30;;;;;;;8.85;88.77;102370.53;6098315;23;20514;-55
2022/11/13 04:56:30;;;;;;;12.65;6.93;;;;;;;8.84;88.47;102360.69;6096349;23;20044;-57
2022/11/13 04:59:16;;;;;;;15.68;7.20;;;;;;;8.83;88.98;102364.47;6098337;23;20026;-56
2022/11/13 05:02:02;;;;;;;;;;;;;;;8.80;88.81;102358.63;6097688;23;20022;-54
2022/11/13 05:04:48;;;;;;;14.32;7.03;;;;;;;8.80;89.05;102366.78;6095621;23;20338;-56
2022/11/13 05:07:35;;;;;;;12.13;7.15;;;;;;;8.74;88.62;102363.06;6095824;23;20081;-53
2022/11/13 05:10:22;;;;;;;12.80;7.82;;;;;;;8.70;88.55;102362.63;6097512;23;20019;-52
2022/11/13 05:13:08;;;;;;;12.15;6.60;;;;;;;8.68;89.33;102363.91;6098032;23;20113;-53
2022/11/13 05:16:03;;;;;;;13.40;7.95;;;;;;;8.70;89.40;102357.22;6095703;23;20343;-49
2022/11/13 05:18:49;;;;;;;;;;;;;;;8.75;89.11;102353.84;6096916;23;20046;-54
2022/11/13 05:21:36;;;;;;;13.68;7.25;;;;;;;8.74;89.02;102349.47;6097434;23;20247;-55
2022/11/13 05:24:23;;;;;;;11.95;7.13;;;;;;;8.71;88.91;102344.47;6096278;23;20023;-57
2022/11/13 05:27:09;;;;;;;10.95;6.30;;;;;;;8.70;89.46;102350.94;6094093;23;20105;-56
2022/11/13 05:30:02;;;;;;;15.35;7.40;;;;;;;8.67;88.48;102343.25;6097525;23;20050;-56
2022/11/13 05:32:48;;;;;;;13.75;7.53;;;;;;;8.65;89.38;102343.44;6095506;23;20018;-54
2022/11/13 05:35:34;;;;;;;;;;;;;;;8.70;90.04;102337.34;6097232;23;20022;-54
2022/11/13 05:38:20;;;;;;;13.68;7.10;;;;;;;8.67;88.83;102329.66;6094981;23;20000;-55
2022/11/13 05:41:10;;;;;;;;;;;;;;;8.69;89.62;102327.56;6096459;23;20023;-52
2022/11/13 05:43:57;;;;;;;12.20;6.80;;;;;;;8.69;88.80;102327.56;6095963;23;19917;-54
2022/11/13 05:46:44;;;;;;;15.05;6.78;;;;;;;8.64;89.05;102321.94;6097032;23;20467;-55
2022/11/13 05:49:31;;;;;;;14.60;6.95;;;;;;;8.61;88.69;102317.78;6095950;23;20045;-55
2022/11/13 05:52:17;;;;;;;13.77;7.70;;;;;;;8.57;89.57;102329.31;6097177;23;20022;-54
2022/11/13 05:55:03;;;;;;;13.65;7.03;;;;;;;8.57;89.14;102313.00;6095900;23;20050;-54
2022/11/13 05:57:49;;;;;;;11.73;6.75;;;;;;;8.59;89.46;102324.50;6097538;23;20029;-53
2022/11/13 06:00:35;;;;;;;12.80;6.75;;;;;;;8.56;88.80;102314.84;6096602;23;20455;-57
2022/11/13 06:03:21;;;;;;;11.38;7.05;;;;;;;8.57;89.45;102318.44;6097267;23;20014;-53
2022/11/13 06:06:08;;;;;;;12.02;6.60;;;;;;;8.58;88.92;102311.94;6094734;23;20475;-52
2022/11/13 06:08:56;;;;;;;14.05;6.95;;;;;;;8.60;89.06;102318.81;6095699;23;20022;-53
2022/11/13 06:11:43;;;;;;;12.10;6.85;;;;;;;8.58;88.88;102315.47;6095863;23;20097;-53
2022/11/13 06:14:30;;;;;;;12.10;6.75;;;;;;;8.59;89.00;102310.91;6096162;23;20026;-52
2022/11/13 06:17:16;;;;;;;;;;;;;;;8.59;88.73;102310.91;6097174;23;20442;-53
2022/11/13 06:20:03;;;;;;;11.20;6.20;;;;;;;8.60;88.52;102307.13;6094064;23;19917;-57
2022/11/13 06:22:49;;;;;;;11.77;6.68;;;;;;;8.60;88.72;102307.13;6096540;23;20097;-55
2022/11/13 06:25:35;;;;;;;12.15;7.13;;;;;;;8.57;87.95;102307.56;6096393;23;20018;-54
2022/11/13 06:28:21;;;;;;;13.43;6.75;;;;;;;8.49;87.49;102309.50;6095587;23;20042;-52
2022/11/13 06:31:20;;;;;;;12.50;7.20;;;;;;;8.48;87.77;102305.09;6096086;23;20392;-56
2022/11/13 06:34:06;;;;;;;12.38;6.30;;;;;;;8.48;88.73;102307.81;6096869;23;20098;-56
2022/11/13 06:36:52;;;;;;;12.32;6.60;;;;;;;8.50;88.32;102304.88;6096549;23;20014;-56
2022/11/13 06:39:38;;;;;;;12.10;6.78;;;;;;;8.47;87.57;102310.75;6097273;23;20023;-56
2022/11/13 06:42:24;;;;;;;11.10;6.85;;;;;;;8.40;87.89;102302.63;6095893;23;20026;-56
2022/11/13 06:45:10;;;;;;;11.80;6.85;;;;;;;8.36;87.69;102305.97;6095538;23;20038;-56
2022/11/13 06:47:56;;;;;;;13.52;6.93;;;;;;;8.31;88.34;102309.31;6095765;23;20098;-56
2022/11/13 06:50:42;;;;;;;;;;;;;;;8.32;88.15;102311.84;6096637;23;20081;-57
2022/11/13 06:53:33;;;;;;;12.48;6.65;;;;;;;8.31;88.66;102306.63;6096468;23;20327;-56
2022/11/13 06:56:20;;;;;;;12.90;7.00;;;;;;;8.30;88.56;102302.25;6095849;23;20046;-56
2022/11/13 06:59:06;;;;;;;12.63;6.93;;;;;;;8.31;88.32;102298.47;6094612;23;20050;-55
2022/11/13 07:01:53;;;;;;;15.27;7.72;;;;;;;8.26;87.94;102290.97;6096517;23;20024;-56
2022/11/13 07:04:39;;;;;;;13.73;7.35;;;;;;;8.22;88.09;102297.03;6095244;23;20030;-58
2022/11/13 07:07:25;;;;;;;;;;;;;;;8.22;89.12;102291.63;6096722;23;20026;-55
2022/11/13 07:10:11;;;;;;;12.52;7.10;;;;;;;8.21;88.66;102292.69;6096434;23;19921;-51
2022/11/13 07:13:00;;;;;;;11.95;6.65;;;;;;;8.22;89.00;102294.31;6096346;23;20042;-54
2022/11/13 07:15:46;;;;;;;13.88;7.07;;;;;;;8.21;88.39;102292.69;6096496;23;20019;-56
2022/11/13 07:18:32;;;;;;;11.50;6.40;;;;;;;8.20;88.58;102296.41;6097196;23;20015;-56
2022/11/13 07:21:19;;;;;;;15.07;7.00;;;;;;;8.17;88.55;102291.44;6096232;23;20022;-54
2022/11/13 07:24:05;;;;;;;12.55;6.47;;;;;;;8.11;89.02;102293.97;6094186;23;20458;-56
2022/11/13 07:26:51;;;;;;;12.00;6.82;;;;;;;8.06;88.55;102296.50;6096235;23;20023;-54
2022/11/13 07:29:38;;;;;;;15.48;6.38;;;;;;;8.03;89.02;102288.78;6097440;23;20022;-55
2022/11/13 07:32:23;;;;;;;13.73;6.95;;;;;;;8.00;89.12;102291.09;6096201;23;20022;-54
2022/11/13 07:35:09;;;;;;;13.27;7.85;;;;;;;7.93;89.14;102284.84;6096337;23;20352;-53
2022/11/13 07:37:56;;;;;;;15.73;8.18;;;;;;;7.90;90.51;102286.09;6096552;23;20018;-52
2022/11/13 07:40:42;;;;;;;12.88;7.95;;;;;;;7.93;90.87;102291.09;6096943;23;20534;-53
2022/11/13 07:43:28;;;;;;;17.40;7.88;;;;;;;7.98;90.20;102296.72;6096403;23;20018;-56
2022/11/13 07:46:15;;;;;;;12.10;7.32;;;;;;;7.99;89.80;102286.72;6096592;23;20023;-52
2022/11/13 07:49:01;;;;;;;13.02;7.18;;;;;;;8.03;90.51;102279.78;6097303;23;20026;-54
2022/11/13 07:51:47;;;;;;;13.15;7.28;;;;;;;8.07;89.75;102287.28;6096739;23;20334;-52
2022/11/13 07:54:32;;;;;;;12.32;7.15;;;;;;;8.14;89.45;102283.72;6096035;23;20110;-56
2022/11/13 07:57:19;;;;;;;14.23;7.05;;;;;;;8.19;89.07;102289.34;6096848;23;20027;-54
2022/11/13 08:00:06;;;;;;;10.70;6.60;;;;;;;8.20;89.36;102280.13;6096731;23;20347;-55
2022/11/13 08:02:52;;;;;;;13.07;7.22;;;;;;;8.20;88.97;102280.13;6097025;23;20093;-53
2022/11/13 08:05:38;;;;;;;12.60;6.60;;;;;;;8.24;89.12;102284.09;6094959;23;20452;-53
2022/11/13 08:08:24;;;;;;;;;;;;;;;8.30;88.93;102283.25;6095015;23;20030;-53
2022/11/13 08:11:11;;;;;;;13.80;8.18;;;;;;;8.33;88.25;102277.38;6096328;23;20254;-56
2022/11/13 08:13:57;;;;;;;16.90;8.63;;;;;;;8.34;88.46;102276.28;6096702;23;20340;-57
2022/11/13 08:16:43;;;;;;;13.52;7.82;;;;;;;8.34;88.33;102273.59;6096109;23;20022;-54
2022/11/13 08:19:29;;;;;;;13.55;8.40;;;;;;;8.36;87.71;102279.63;6094987;23;20407;-50
2022/11/13 08:22:15;;;;;;;16.10;7.78;;;;;;;8.36;87.29;102276.91;6094281;23;20015;-56
2022/11/13 08:25:02;;;;;;;21.65;8.20;;;;;;;8.38;88.19;102274.00;6096006;23;20097;-56
2022/11/13 08:27:47;;;;;;;;;;;;;;;8.38;88.75;102272.09;6096487;23;20022;-53
2022/11/13 08:30:33;;;;;;;15.85;8.00;;;;;;;8.42;88.59;102265.22;6096263;23;19995;-58
2022/11/13 08:33:19;;;;;;;15.23;8.75;;;;;;;8.47;88.53;102272.72;6096356;23;20022;-55
2022/11/13 08:36:06;;;;;;;11.02;7.35;;;;;;;8.51;88.21;102266.66;6097215;23;20023;-54
2022/11/13 08:38:52;;;;;;;13.27;7.35;;;;;;;8.56;87.45;102267.84;6098359;23;20029;-57
2022/11/13 08:41:38;;;;;;;11.90;6.53;;;;;;;8.58;86.72;102260.31;6097615;23;20443;-55
2022/11/13 08:44:23;;;;;;;12.88;7.45;;;;;;;8.63;86.75;102253.16;6096777;23;20018;-54
2022/11/13 08:47:09;;;;;;;11.68;7.88;;;;;;;8.67;86.28;102248.13;6097480;23;20491;-54
2022/11/13 08:49:55;;;;;;;11.52;7.03;;;;;;;8.71;85.54;102249.38;6096981;23;20031;-54
2022/11/13 08:52:41;;;;;;;11.90;7.22;;;;;;;8.75;85.49;102245.13;6095081;23;20018;-56
2022/11/13 08:55:27;;;;;;;;;;;;;;;8.79;86.17;102243.66;6096760;23;20022;-54
2022/11/13 08:58:13;;;;;;;10.30;5.70;;;;;;;8.82;84.25;102248.63;6095243;23;19984;-55
2022/11/13 09:01:01;;;;;;;13.77;6.38;;;;;;;8.86;84.51;102239.00;6096319;23;20018;-55
2022/11/13 09:03:48;;;;;;;10.43;6.10;;;;;;;8.91;84.42;102241.06;6097662;23;20066;-56
2022/11/13 09:06:34;;;;;;;9.48;5.57;;;;;;;8.94;83.49;102238.72;6099826;23;20022;-56
2022/11/13 09:09:22;;;;;;;8.27;4.80;;;;;;;8.98;82.29;102238.28;6100332;23;20022;-56
2022/11/13 09:12:08;;;;;;;9.07;5.07;;;;;;;8.99;80.35;102235.31;6099314;23;20023;-55
2022/11/13 09:14:54;;;;;;;7.57;4.95;;;;;;;9.05;80.26;102233.63;6097792;23;20033;-53
2022/11/13 09:17:40;;;;;;;10.48;5.50;;;;;;;9.10;81.12;102231.06;6098443;23;20074;-53
2022/11/13 09:20:26;;;;;;;9.20;4.50;;;;;;;9.14;79.71;102240.44;6098021;23;20022;-55
2022/11/13 09:23:12;;;;;;;10.75;5.47;;;;;;;9.18;80.00;102233.47;6097941;23;20026;-54
2022/11/13 09:26:01;;;;;;;8.50;4.95;;;;;;;9.22;79.32;102229.25;6097970;23;20097;-56
2022/11/13 09:28:48;;;;;;;9.27;4.50;;;;;;;9.26;79.59;102235.06;6097041;23;20023;-54
2022/11/13 09:31:34;;;;;;;7.95;5.00;;;;;;;9.26;79.52;102233.22;6098130;23;20093;-58
2022/11/13 09:34:20;;;;;;;9.20;5.28;;;;;;;9.29;79.59;102240.91;6097734;23;20026;-53
2022/11/13 09:37:06;;;;;;;11.98;5.70;;;;;;;9.31;79.50;102232.53;6096546;23;20101;-58
2022/11/13 09:39:52;;;;;;;8.60;4.43;;;;;;;9.35;78.73;102222.84;6098108;23;20045;-53
2022/11/13 09:42:40;;;;;;;8.98;4.97;;;;;;;9.37;79.35;102226.19;6098234;23;20101;-54
2022/11/13 09:45:26;;;;;;;11.43;4.88;;;;;;;9.37;79.30;102221.56;6097484;23;20014;-56
2022/11/13 09:48:26;;;;;;;8.60;4.53;;;;;;;9.38;79.50;102217.81;6097959;23;20025;-52
2022/11/13 09:51:20;;;;;;;9.32;4.90;;;;;;;9.41;79.26;102218.41;6097830;23;20015;-50
2022/11/13 09:54:11;;;;;;;8.63;4.80;;;;;;;9.44;79.52;102221.50;6097927;23;20347;-54
2022/11/13 09:57:16;;;;;;;9.88;4.95;;;;;;;9.47;79.69;102212.06;6099741;23;20033;-55
2022/11/13 10:00:17;;;;;;;9.98;4.50;;;;;;;9.52;78.60;102223.09;6097600;23;20018;-55
2022/11/13 10:03:25;;;;;;;8.35;4.88;;;;;;;9.55;78.77;102219.94;6097528;23;20018;-51
2022/11/13 10:06:51;;;;;;;10.40;4.60;;;;;;;9.57;78.76;102215.06;6097857;23;20351;-55
2022/11/13 10:09:58;;;;;;;11.23;5.18;;;;;;;9.60;78.47;102218.19;6096593;23;20023;-55
2022/11/13 10:12:47;;;;;;;8.40;4.75;;;;;;;9.65;78.30;102220.22;6097813;23;20019;-57
2022/11/13 10:15:33;;;;;;;7.20;4.30;;;;;;;9.69;77.93;102213.28;6096167;23;20105;-54
2022/11/13 10:18:26;;;;;;;8.20;4.97;;;;;;;9.74;77.69;102207.97;6096549;23;20045;-56
2022/11/13 10:21:19;;;;;;;8.68;4.80;;;;;;;9.80;76.76;102208.94;6075720;23;20026;-55
2022/11/13 10:24:21;;;;;;;7.25;4.13;;;;;;;9.87;76.72;102208.88;6096100;23;20019;-53
2022/11/13 10:27:09;;;;;;;8.02;4.47;;;;;;;9.93;76.96;102205.22;6095967;23;20097;-57
2022/11/13 10:29:56;;;;;;;6.95;4.25;;;;;;;9.98;76.93;102206.22;6096277;23;20018;-55
2022/11/13 10:32:43;;;;;;;9.38;5.15;;;;;;;10.00;76.40;102198.63;6097065;23;20093;-54
2022/11/13 10:35:55;;;;;;;8.75;4.97;;;;;;;10.03;76.45;102210.97;6095923;23;20022;-56
2022/11/13 10:38:49;;;;;;;6.90;4.55;;;;;;;10.05;75.95;102200.66;6097291;23;20092;-52
2022/11/13 10:41:49;;;;;;;6.80;4.43;;;;;;;10.10;75.64;102197.25;6095978;23;20515;-55
2022/11/13 10:44:35;;;;;;;8.27;4.70;;;;;;;10.15;75.32;102198.22;6097424;23;20026;-50
2022/11/13 10:47:24;;;;;;;8.13;4.68;;;;;;;10.20;75.12;102190.19;6097082;23;20022;-53
2022/11/13 10:50:31;;;;;;;7.80;4.80;;;;;;;10.24;75.83;102188.63;6095966;23;20018;-55
2022/11/13 10:53:18;;;;;;;8.20;4.95;;;;;;;10.28;75.25;102189.06;6095741;23;20018;-54
2022/11/13 10:56:19;;;;;;;7.97;4.75;;;;;;;10.32;75.76;102181.22;6096034;23;20022;-55
2022/11/13 10:59:15;;;;;;;8.85;4.88;;;;;;;10.35;75.97;102180.78;6095706;23;20018;-54
2022/11/13 11:02:20;;;;;;;8.57;4.95;;;;;;;10.43;75.78;102175.00;6096988;23;20033;-56
2022/11/13 11:05:20;;;;;;;8.15;5.03;;;;;;;10.50;75.47;102164.00;6095788;23;20026;-52
2022/11/13 11:08:09;;;;;;;6.25;3.72;;;;;;;10.55;74.89;102156.75;6096661;23;20018;-54
2022/11/13 11:14:24;;;;;;;7.72;4.95;;;;;;;10.71;74.63;102151.69;6096798;23;20026;-58
2022/11/13 11:17:12;;;;;;;7.40;4.35;;;;;;;10.77;74.60;102153.47;6092793;23;20023;-53
2022/11/13 11:20:14;;;;;;;5.93;4.22;;;;;;;10.80;74.36;102142.94;6094805;23;20134;-57
2022/11/13 11:23:12;;;;;;;8.65;4.55;;;;;;;10.85;74.12;102145.78;6096754;23;20019;-56
2022/11/13 11:26:08;;;;;;;7.20;4.30;;;;;;;10.95;73.66;102138.91;6096384;23;20060;-52
2022/11/13 11:29:15;;;;;;;11.77;4.65;;;;;;;11.03;74.72;102135.78;6096615;23;20332;-54
2022/11/13 11:32:15;;;;;;;7.38;4.50;;;;;;;11.09;74.56;102135.69;6095305;23;20019;-54
2022/11/13 11:35:06;;;;;;;7.93;4.85;;;;;;;11.15;74.94;102135.78;6095728;23;20097;-54
2022/11/13 11:38:04;;;;;;;7.80;4.82;;;;;;;11.18;74.43;102132.56;6096439;23;20054;-54
2022/11/13 11:40:54;;;;;;;7.65;4.82;;;;;;;11.21;73.27;102132.13;6095125;23;20428;-57
2022/11/13 11:43:43;;;;;;;8.15;4.50;;;;;;;11.23;72.88;102122.63;6095250;23;20094;-53
2022/11/13 11:46:30;;;;;;;11.63;4.60;;;;;;;11.26;72.42;102118.56;6094979;23;20022;-53
2022/11/13 11:49:16;;;;;;;9.50;4.50;;;;;;;11.25;72.06;102114.16;6096448;23;20018;-56
2022/11/13 11:52:04;;;;;;;;;;;;;;;11.23;72.72;102108.97;6075110;23;20617;-56
2022/11/13 11:55:29;;;;;;;7.88;4.72;;;;;;;11.29;72.38;102107.16;6096516;23;19917;-52
2022/11/13 11:58:35;;;;;;;7.38;4.32;;;;;;;11.34;72.21;102092.81;6096876;23;20107;-55
2022/11/13 12:01:44;;;;;;;6.90;4.35;;;;;;;11.40;71.78;102095.41;6075476;23;20022;-53
2022/11/13 12:04:54;;;;;;;8.48;4.68;;;;;;;11.50;72.05;102081.13;6096013;23;20014;-53
2022/11/13 12:07:52;;;;;;;7.18;4.07;;;;;;;11.54;71.63;102076.00;6096867;23;20026;-53
2022/11/13 12:11:02;;;;;;;10.07;4.40;;;;;;;11.57;72.64;102083.69;6100302;23;20019;-56
2022/11/13 12:14:08;;;;;;;8.95;4.50;;;;;;;11.60;72.61;102078.59;6094666;23;20097;-54
2022/11/13 12:17:28;;;;;;;11.93;4.70;;;;;;;11.63;72.32;102069.06;6095531;23;20015;-55
2022/11/13 12:20:22;;;;;;;6.65;4.32;;;;;;;11.66;72.30;102063.94;6096394;23;20018;-54
2022/11/13 12:23:20;;;;;;;7.82;3.92;;;;;;;11.69;72.59;102068.13;6095769;23;20023;-55
2022/11/13 12:26:33;;;;;;;7.47;4.18;;;;;;;11.82;70.70;102066.97;6096545;23;20022;-54
2022/11/13 12:30:00;;;;;;;6.80;3.65;;;;;;;11.80;69.49;102064.47;6095012;23;20030;-56
2022/11/13 12:33:06;;;;;;;6.25;3.60;;;;;;;11.81;69.07;102059.84;6095442;23;20025;-54
2022/11/13 12:35:52;;;;;;;;;;;;;;;11.89;73.97;102051.28;6098988;23;20023;-54
2022/11/13 12:38:53;;;;;;;8.55;3.83;;;;;;;11.89;71.04;102041.19;6095677;23;19999;-52
2022/11/13 12:42:04;;;;;;;7.95;4.50;;;;;;;11.93;70.72;102030.63;6094761;23;20036;-52
2022/11/13 12:44:59;;;;;;;8.27;4.60;;;;;;;12.06;70.37;102026.72;6094452;23;20023;-57
2022/11/13 12:47:48;;;;;;;7.38;4.40;;;;;;;12.13;69.82;102022.72;6096477;23;20078;-55
2022/11/13 12:50:35;;;;;;;7.50;4.72;;;;;;;12.12;68.82;102028.44;6097127;23;20027;-53
2022/11/13 12:53:27;;;;;;;6.97;4.55;;;;;;;12.11;68.33;102026.78;6098584;23;20019;-52
2022/11/13 12:56:23;;;;;;;9.27;4.57;;;;;;;12.11;68.25;102021.34;6098721;23;20030;-53
2022/11/13 12:59:19;;;;;;;8.88;4.32;;;;;;;12.15;69.36;102017.03;6098752;23;20435;-54
2022/11/13 13:02:20;;;;;;;9.50;4.40;;;;;;;12.17;69.41;102006.69;6098208;23;20436;-55
2022/11/13 13:05:15;;;;;;;7.25;4.18;;;;;;;12.24;69.11;102010.06;6098081;23;20022;-53
2022/11/13 13:08:01;;;;;;;10.38;4.40;;;;;;;12.26;69.39;102007.91;6098996;23;20057;-54
2022/11/13 13:11:10;;;;;;;7.10;4.45;;;;;;;12.25;69.51;101992.59;6099079;23;20023;-55
2022/11/13 13:14:17;;;;;;;6.82;4.35;;;;;;;12.28;69.46;101986.63;6075757;23;20022;-52
2022/11/13 13:17:18;;;;;;;9.07;4.53;;;;;;;12.29;68.89;101985.56;6098316;23;20054;-55
2022/11/13 13:20:28;;;;;;;9.02;4.35;;;;;;;12.29;69.29;101979.25;6097524;23;20090;-52
2022/11/13 13:23:35;;;;;;;8.25;3.83;;;;;;;12.34;69.75;101982.88;6098081;23;20023;-51